• Join FlightAware (Why Join?)
  • Login
  • US Flag 
04:00AM EST


 

Airport Tracker/Info


-or-


 

Live Flight TrackerFlight Track Log ✈ CSN3540 ✈ 07-May-2013 ✈ ZSCN / KHN - ZGGG / CAN

Flight Track Log - Related Links

Times and Time Zones

All times are in EDT time to prevent confusion due to time zone crossing. See the CSN3540 flight status page for this flight to view local times or setup timezone preferences in your user account.

Time Position Orientation Groundspeed Altitude Reporting Facility
EDT Latitude Longitude Course Direction KTS MPH feet Rate Location/Type
10:36PM 28.7514 115.8431 204° Southwest  Level Estimated
10:37PM 28.6377 115.7864 204° Southwest  Level Estimated
10:38PM 28.5240 115.7297 204° Southwest  Level Estimated
10:39PM 28.4103 115.6732 204° Southwest  Level Estimated
10:40PM 28.2965 115.6168 204° Southwest  Level Estimated
10:41PM 28.1828 115.5605 204° Southwest  Level Estimated
10:42PM 28.0690 115.5044 204° Southwest  Level Estimated
10:43PM 27.9552 115.4484 204° Southwest  Level Estimated
10:44PM 27.8413 115.3924 203° Southwest  Level Estimated
10:45PM 27.7275 115.3366 203° Southwest  Level Estimated
10:46PM 27.6136 115.2810 203° Southwest  Level Estimated
10:47PM 27.4997 115.2254 203° Southwest  Level Estimated
10:48PM 27.3858 115.1700 203° Southwest  Level Estimated
10:49PM 27.2719 115.1146 203° Southwest  Level Estimated
10:50PM 27.1579 115.0594 203° Southwest  Level Estimated
10:51PM 27.0439 115.0043 203° Southwest  Level Estimated
10:52PM 26.9299 114.9493 203° Southwest  Level Estimated
10:53PM 26.8159 114.8944 203° Southwest  Level Estimated
10:54PM 26.7018 114.8396 203° Southwest  Level Estimated
10:55PM 26.5877 114.7849 203° Southwest  Level Estimated
10:56PM 26.4736 114.7304 203° Southwest  Level Estimated
10:57PM 26.3595 114.6759 203° Southwest  Level Estimated
10:58PM 26.2454 114.6216 203° Southwest  Level Estimated
10:59PM 26.1313 114.5674 203° Southwest  Level Estimated
11:00PM 26.0171 114.5132 203° Southwest  Level Estimated
11:01PM 25.9029 114.4592 203° Southwest  Level Estimated
11:02PM 25.7887 114.4053 203° Southwest  Level Estimated
11:02PM 24.7540 114.3810 203° Southwest 388 447 21,700  Level FlightAware
11:03PM 25.6745 114.3514 203° Southwest  Level Estimated
11:03PM 24.6860 114.3540 200° South 383 441 21,300  Level FlightAware
11:04PM 24.6100 114.3230 200° South 379 436 20,600 -918 Descending FlightAware
11:04PM 24.5440 114.2960 200° South 375 432 20,000 -900 Descending FlightAware
11:05PM 24.4800 114.2710 200° South 373 429 19,400 -847 Descending FlightAware
11:06PM 24.4090 114.2420 200° South 367 422 18,800 -847 Descending FlightAware
11:06PM 24.3460 114.2170 200° South 365 420 18,200 -847 Descending FlightAware
11:07PM 24.2720 114.1870 200° South 359 413 17,600 -847 Descending FlightAware
11:08PM 24.2130 114.1630 200° South 356 410 17,000 -825 Descending FlightAware
11:08PM 24.1490 114.1380 200° South 352 405 16,500 -450 Descending FlightAware
11:09PM 24.0940 114.1160 200° South 352 405 16,400 -75 Descending FlightAware
11:10PM 24.0420 114.0950 200° South 352 405 16,400  Level FlightAware
11:11PM 23.9770 114.0690 200° South 352 405 16,400  Level FlightAware
11:11PM 23.9250 114.0480 200° South 352 405 16,400  Level FlightAware
11:12PM 23.8730 114.0280 199° South 352 405 16,400 -1,745 Level FlightAware
11:13PM 23.8560 113.9240 260° West 256 295 13,200 -2,160 Descending FlightAware
11:14PM 23.8360 113.8920 236° Southwest 254 292 12,800 -667 Descending FlightAware
11:14PM 23.8320 113.8750 256° West 256 295 12,700 -655 Descending FlightAware
11:14PM 23.8330 113.8230 271° West 257 296 12,200 -825 Descending FlightAware
11:15PM 23.8330 113.7710 270° West 254 292 11,600 -1,059 Descending FlightAware
11:16PM 23.8340 113.7150 271° West 250 288 10,700 -1,275 Descending FlightAware
11:16PM 23.8350 113.6710 271° West 249 287 9,900 -1,569 Descending FlightAware
11:17PM 23.8350 113.6330 270° West 248 285 9,000 -1,754 Descending FlightAware
11:18PM 23.8360 113.5870 271° West 247 284 8,000 -1,600 Descending FlightAware
11:18PM 23.8360 113.5580 270° West 247 284 7,400 -1,418 Descending FlightAware
11:18PM 23.8370 113.5210 272° West 242 278 6,700 -1,467 Descending FlightAware
11:19PM 23.8370 113.5020 270° West 241 277 6,300 -720 Descending FlightAware
11:19PM 23.8370 113.4620 270° West 241 277 6,100 -672 Descending FlightAware
11:21PM 23.8000 113.3980 238° Southwest 186 214 4,900 -626 Descending FlightAware
11:21PM 23.7780 113.3910 196° South 187 215 4,900 -218 Level FlightAware
11:22PM 23.7530 113.3850 192° South 182 209 4,700 -343 Descending FlightAware
11:22PM 23.7220 113.3770 193° South 186 214 4,500 -486 Descending FlightAware
11:25PM 23.4633 113.3156 192° South  Level Estimated
11:25PM 23.5880 113.3410 192° South 171 197 3,000  Level FlightAware
11:26PM 23.5640 113.3340 195° South 170 196 3,000 -327 Level FlightAware
11:26PM 23.5450 113.3290 194° South 173 199 2,700 -800 Descending FlightAware
11:26PM 23.5290 113.3240 196° South 171 197 2,400 -900 Descending FlightAware
11:29PM 23.3924 113.2988 190° South  Level Estimated
11:30PM 23.3924 113.2988 223° Southwest  Level Estimated
11:31PM 23.3924 113.2988 223° Southwest  Level Estimated
11:32PM 23.3924 113.2988 223° Southwest  Level Estimated
11:33PM 23.3924 113.2988 223° Southwest  Level Estimated
11:34PM 23.3924 113.2988 223° Southwest  Level Estimated
11:35PM 23.3924 113.2988 223° Southwest  Level Estimated
11:36PM 23.3924 113.2988 223° Southwest  Level Estimated
11:37PM 23.3924 113.2988 223° Southwest  Level Estimated